createdAt,value
2022-10-03T00:02:39.338Z,6.35
2022-10-03T00:05:26.057Z,6.50
2022-10-03T00:08:03.203Z,6.63
2022-10-03T00:10:37.440Z,6.50
2022-10-03T00:13:11.411Z,6.25
2022-10-03T00:15:47.483Z,6.60
2022-10-03T00:18:26.132Z,6.50
2022-10-03T00:21:17.145Z,6.63
2022-10-03T00:23:50.117Z,6.50
2022-10-03T00:26:33.188Z,5.95
2022-10-03T00:29:20.340Z,5.85
2022-10-03T00:31:56.672Z,6.03
2022-10-03T00:34:30.399Z,5.85
2022-10-03T00:37:11.300Z,6.30
2022-10-03T00:39:56.150Z,6.65
2022-10-03T00:42:37.806Z,6.53
2022-10-03T00:45:32.007Z,5.82
2022-10-03T00:48:14.465Z,6.22
2022-10-03T00:50:58.284Z,6.20
2022-10-03T00:53:37.909Z,6.15
2022-10-03T00:56:29.507Z,6.10
2022-10-03T00:59:16.693Z,6.30
2022-10-03T01:01:48.338Z,5.82
2022-10-03T01:04:32.950Z,6.28
2022-10-03T01:07:08.538Z,6.10
2022-10-03T01:09:49.486Z,6.38
2022-10-03T01:12:33.080Z,6.25
2022-10-03T01:15:13.036Z,6.07
2022-10-03T01:17:49.484Z,6.10
2022-10-03T01:20:29.736Z,5.25
2022-10-03T01:23:19.402Z,5.38
2022-10-03T01:25:53.280Z,5.63
2022-10-03T01:28:57.337Z,5.80
2022-10-03T01:31:28.587Z,6.60
2022-10-03T01:34:02.877Z,6.10
2022-10-03T01:36:35.044Z,6.57
2022-10-03T01:39:07.488Z,6.80
2022-10-03T01:41:40.356Z,6.95
2022-10-03T01:44:16.453Z,6.70
2022-10-03T01:46:47.986Z,6.55
2022-10-03T01:49:22.497Z,6.75
2022-10-03T01:51:55.764Z,6.90
2022-10-03T01:54:29.622Z,7.25
2022-10-03T01:57:02.895Z,6.47
2022-10-03T01:59:39.686Z,7.20
2022-10-03T02:02:11.462Z,6.38
2022-10-03T02:04:45.549Z,6.63
2022-10-03T02:07:21.568Z,6.68
2022-10-03T02:09:54.771Z,6.78
2022-10-03T02:12:28.933Z,6.65
2022-10-03T02:15:02.982Z,6.60
2022-10-03T02:17:38.491Z,6.15
2022-10-03T02:20:09.822Z,6.10
2022-10-03T02:22:42.643Z,5.57
2022-10-03T02:25:21.081Z,6.38
2022-10-03T02:28:16.707Z,6.07
2022-10-03T02:30:59.233Z,6.05
2022-10-03T02:33:55.185Z,5.82
2022-10-03T02:36:51.438Z,5.88
2022-10-03T02:39:42.219Z,5.95
2022-10-03T02:42:31.540Z,5.95
2022-10-03T02:45:23.496Z,6.20
2022-10-03T02:48:30.784Z,5.93
2022-10-03T02:51:17.240Z,6.00
2022-10-03T02:54:05.885Z,5.95
2022-10-03T02:56:53.728Z,6.47
2022-10-03T02:59:50.671Z,6.53
2022-10-03T03:02:50.196Z,5.88
2022-10-03T03:05:27.617Z,5.65
2022-10-03T03:08:17.422Z,6.18
2022-10-03T03:11:06.672Z,6.10
2022-10-03T03:14:10.882Z,6.13
2022-10-03T03:16:53.071Z,6.65
2022-10-03T03:19:34.018Z,6.35
2022-10-03T03:22:12.717Z,6.40
2022-10-03T03:24:52.269Z,6.22
2022-10-03T03:27:29.307Z,6.22
2022-10-03T03:30:02.348Z,6.07
2022-10-03T03:32:39.192Z,6.40
2022-10-03T03:35:13.722Z,6.38
2022-10-03T03:37:49.071Z,6.22
2022-10-03T03:40:33.857Z,6.25
2022-10-03T03:43:19.251Z,6.28
2022-10-03T03:45:51.928Z,6.07
2022-10-03T03:48:56.600Z,6.45
2022-10-03T03:51:31.077Z,6.18
2022-10-03T03:54:31.252Z,5.97
2022-10-03T03:57:17.054Z,6.30
2022-10-03T03:59:55.009Z,6.28
2022-10-03T04:02:30.679Z,6.47
2022-10-03T04:05:07.997Z,6.95
2022-10-03T04:07:48.324Z,6.95
2022-10-03T04:10:33.966Z,6.37
2022-10-03T04:13:11.796Z,6.20
2022-10-03T04:16:01.278Z,5.95
2022-10-03T04:19:00.641Z,6.05
2022-10-03T04:21:38.810Z,6.70
2022-10-03T04:24:36.510Z,5.78
2022-10-03T04:27:19.668Z,5.93
2022-10-03T04:29:56.752Z,6.22
2022-10-03T04:33:01.990Z,6.00
2022-10-03T04:35:42.825Z,5.80
2022-10-03T04:38:14.998Z,6.57
2022-10-03T04:40:48.028Z,6.15
2022-10-03T04:43:22.953Z,5.80
2022-10-03T04:46:00.275Z,5.82
2022-10-03T04:48:33.369Z,5.60
2022-10-03T04:51:08.983Z,5.60
2022-10-03T04:53:46.149Z,5.93
2022-10-03T04:56:29.780Z,6.38
2022-10-03T04:59:05.969Z,5.70
2022-10-03T05:01:38.328Z,5.63
2022-10-03T05:04:12.577Z,6.10
2022-10-03T05:06:48.165Z,6.25
2022-10-03T05:09:25.965Z,5.60
2022-10-03T05:12:02.385Z,5.50
2022-10-03T05:14:42.901Z,5.60
2022-10-03T05:17:14.465Z,5.13
2022-10-03T05:19:51.021Z,5.20
2022-10-03T05:22:28.945Z,5.32
2022-10-03T05:25:01.013Z,5.00
2022-10-03T05:27:35.711Z,5.28
2022-10-03T05:30:10.472Z,5.35
2022-10-03T05:32:42.567Z,5.90
2022-10-03T05:35:27.100Z,5.55
2022-10-03T05:38:29.166Z,7.95
2022-10-03T05:41:06.117Z,7.82
2022-10-03T05:43:47.885Z,7.72
2022-10-03T05:46:24.161Z,7.85
2022-10-03T05:48:56.374Z,7.32
2022-10-03T05:51:46.627Z,6.30
2022-10-03T05:54:46.098Z,5.75
2022-10-03T05:57:40.563Z,6.20
2022-10-03T06:00:18.264Z,5.70
2022-10-03T06:03:05.603Z,6.20
2022-10-03T06:05:38.872Z,5.95
2022-10-03T06:08:31.637Z,6.20
2022-10-03T06:11:04.678Z,5.75
2022-10-03T06:13:42.875Z,6.40
2022-10-03T06:16:23.069Z,6.35
2022-10-03T06:19:14.638Z,6.45
2022-10-03T06:22:17.052Z,6.35
2022-10-03T06:25:00.403Z,6.65
2022-10-03T06:27:41.548Z,6.95
2022-10-03T06:30:15.509Z,6.38
2022-10-03T06:33:15.828Z,5.93
2022-10-03T06:36:09.846Z,6.10
2022-10-03T06:39:15.734Z,5.85
2022-10-03T06:42:10.673Z,6.15
2022-10-03T06:44:48.672Z,6.20
2022-10-03T06:47:33.492Z,6.85
2022-10-03T06:50:41.089Z,5.95
2022-10-03T06:53:29.223Z,6.15
2022-10-03T06:56:25.782Z,6.50
2022-10-03T06:59:28.884Z,6.00
2022-10-03T07:02:19.835Z,6.07
2022-10-03T07:05:04.012Z,5.82
2022-10-03T07:08:03.073Z,6.35
2022-10-03T07:10:52.828Z,6.07
2022-10-03T07:13:39.311Z,5.90
2022-10-03T07:16:27.665Z,5.85
2022-10-03T07:19:20.158Z,5.90
2022-10-03T07:22:18.733Z,6.07
2022-10-03T07:25:19.207Z,5.70
2022-10-03T07:27:59.293Z,6.00
2022-10-03T07:30:28.813Z,5.72
2022-10-03T07:33:27.901Z,6.30
2022-10-03T07:36:37.658Z,5.72
2022-10-03T07:39:37.473Z,5.95
2022-10-03T07:42:25.786Z,6.47
2022-10-03T07:45:45.743Z,6.60
2022-10-03T07:48:56.398Z,16.10
2022-10-03T07:51:26.705Z,7.23
2022-10-03T07:54:24.532Z,6.23
2022-10-03T07:57:17.085Z,6.20
2022-10-03T08:00:19.735Z,6.00
2022-10-03T08:03:14.499Z,6.35
2022-10-03T08:06:13.986Z,10.10
2022-10-03T08:09:05.322Z,18.88
2022-10-03T08:14:20.854Z,14.13
2022-10-03T08:17:14.779Z,11.10
2022-10-03T08:19:54.860Z,8.27
2022-10-03T08:22:34.123Z,10.05
2022-10-03T08:25:21.122Z,6.90
2022-10-03T08:28:18.087Z,6.63
2022-10-03T08:31:07.653Z,7.00
2022-10-03T08:33:48.902Z,6.55
2022-10-03T08:39:20.472Z,6.05
2022-10-03T08:42:19.292Z,6.32
2022-10-03T08:45:06.550Z,6.97
2022-10-03T08:48:11.977Z,6.20
2022-10-03T08:50:59.253Z,6.47
2022-10-03T08:53:53.258Z,6.82
2022-10-03T08:56:24.527Z,7.18
2022-10-03T08:59:24.776Z,6.80
2022-10-03T09:02:23.146Z,6.32
2022-10-03T09:05:14.126Z,6.70
2022-10-03T09:08:08.660Z,7.47
2022-10-03T09:10:40.190Z,7.55
2022-10-03T09:13:28.681Z,6.20
2022-10-03T09:16:20.772Z,6.15
2022-10-03T09:19:16.773Z,6.40
2022-10-03T09:21:59.733Z,7.90
2022-10-03T09:25:14.077Z,7.32
2022-10-03T09:27:49.553Z,7.15
2022-10-03T09:30:29.474Z,6.47
2022-10-03T09:33:30.570Z,6.63
2022-10-03T09:36:32.425Z,8.27
2022-10-03T09:39:06.376Z,6.30
2022-10-03T09:42:08.553Z,5.88
2022-10-03T09:44:46.323Z,6.00
2022-10-03T09:47:48.660Z,5.07
2022-10-03T09:50:52.101Z,5.55
2022-10-03T09:53:40.625Z,4.85
2022-10-03T09:56:40.471Z,4.70
2022-10-03T09:59:28.131Z,5.20
2022-10-03T10:02:02.220Z,5.10
2022-10-03T10:04:54.945Z,4.55
2022-10-03T10:08:03.471Z,5.07
2022-10-03T10:10:55.655Z,5.00
2022-10-03T10:14:07.757Z,4.53
2022-10-03T10:17:06.624Z,4.03
2022-10-03T10:19:54.170Z,4.50
2022-10-03T10:22:49.034Z,4.10
2022-10-03T10:25:36.726Z,3.65
2022-10-03T10:28:20.348Z,3.50
2022-10-03T10:31:12.805Z,3.80
2022-10-03T10:34:14.593Z,3.90
2022-10-03T10:37:22.803Z,4.05
2022-10-03T10:40:27.468Z,3.60
2022-10-03T10:43:34.627Z,3.47
2022-10-03T10:46:21.155Z,3.70
2022-10-03T10:49:20.590Z,3.70
2022-10-03T10:52:19.854Z,3.58
2022-10-03T10:55:30.996Z,3.60
2022-10-03T10:58:43.374Z,3.00
2022-10-03T11:01:48.382Z,3.38
2022-10-03T11:04:47.407Z,3.83
2022-10-03T11:07:41.510Z,3.60
2022-10-03T11:10:32.026Z,3.42
2022-10-03T11:13:40.971Z,3.60
2022-10-03T11:16:43.022Z,7.03
2022-10-03T11:19:36.396Z,4.38
2022-10-03T11:23:05.449Z,3.83
2022-10-03T11:26:05.337Z,3.20
2022-10-03T11:29:02.858Z,3.20
2022-10-03T11:32:11.226Z,3.67
2022-10-03T11:35:15.994Z,3.67
2022-10-03T11:37:46.508Z,3.60
2022-10-03T11:40:38.743Z,3.17
2022-10-03T11:43:37.076Z,3.70
2022-10-03T11:46:16.949Z,3.20
2022-10-03T11:48:49.456Z,3.00
2022-10-03T11:51:19.881Z,2.97
2022-10-03T11:53:49.930Z,3.05
2022-10-03T11:56:39.176Z,3.28
2022-10-03T11:59:35.029Z,3.22
2022-10-03T12:02:13.366Z,3.38
2022-10-03T12:04:53.046Z,2.92
2022-10-03T12:07:58.151Z,3.38
2022-10-03T12:10:39.242Z,3.75
2022-10-03T12:13:13.184Z,4.13
2022-10-03T12:15:44.541Z,3.28
2022-10-03T12:18:16.813Z,3.45
2022-10-03T12:21:07.058Z,3.08
2022-10-03T12:23:50.139Z,3.10
2022-10-03T12:26:21.336Z,3.50
2022-10-03T12:28:54.056Z,3.72
2022-10-03T12:31:25.041Z,4.15
2022-10-03T12:36:28.300Z,3.92
2022-10-03T12:39:09.177Z,3.58
2022-10-03T12:41:55.208Z,3.63
2022-10-03T12:44:32.123Z,3.60
2022-10-03T12:47:05.747Z,3.40
2022-10-03T12:49:42.753Z,3.50
2022-10-03T12:52:19.341Z,3.40
2022-10-03T12:54:50.783Z,3.70
2022-10-03T12:57:48.004Z,4.05
2022-10-03T13:00:22.362Z,4.22
2022-10-03T13:03:15.156Z,4.30
2022-10-03T13:05:56.338Z,3.90
2022-10-03T13:11:04.872Z,4.07
2022-10-03T13:13:35.661Z,4.50
2022-10-03T13:16:16.566Z,4.25
2022-10-03T13:18:48.073Z,4.43
2022-10-03T13:21:44.839Z,4.10
2022-10-03T13:24:16.096Z,3.80
2022-10-03T13:26:51.667Z,4.60
2022-10-03T13:29:25.407Z,4.05
2022-10-03T13:32:19.115Z,4.00
2022-10-03T13:35:38.403Z,4.03
2022-10-03T13:38:22.065Z,4.07
2022-10-03T13:40:57.815Z,4.22
2022-10-03T13:43:30.130Z,4.38
2022-10-03T13:45:59.679Z,4.40
2022-10-03T13:48:29.859Z,5.43
2022-10-03T13:51:02.261Z,4.83
2022-10-03T13:53:45.132Z,4.20
2022-10-03T13:56:18.641Z,4.45
2022-10-03T13:58:50.376Z,6.47
2022-10-03T14:01:41.718Z,5.70
2022-10-03T14:04:20.458Z,5.18
2022-10-03T14:06:51.451Z,4.68
2022-10-03T14:10:00.517Z,4.30
2022-10-03T14:12:54.284Z,3.97
2022-10-03T14:15:31.414Z,4.00
2022-10-03T14:18:06.261Z,3.97
2022-10-03T14:20:38.279Z,4.28
2022-10-03T14:23:14.828Z,4.07
2022-10-03T14:25:47.272Z,4.03
2022-10-03T14:28:21.800Z,4.40
2022-10-03T14:31:06.145Z,3.97
2022-10-03T14:33:39.692Z,4.05
2022-10-03T14:36:24.661Z,4.00
2022-10-03T14:39:11.068Z,4.00
2022-10-03T14:42:08.690Z,4.53
2022-10-03T14:44:42.868Z,3.78
2022-10-03T14:47:13.767Z,3.70
2022-10-03T14:49:56.344Z,3.90
2022-10-03T14:52:30.815Z,4.03
2022-10-03T14:55:01.678Z,3.78
2022-10-03T14:57:52.895Z,4.18
2022-10-03T15:00:38.623Z,3.10
2022-10-03T15:03:33.839Z,2.80
2022-10-03T15:06:05.953Z,2.90
2022-10-03T15:08:40.471Z,2.70
2022-10-03T15:11:10.229Z,2.70
2022-10-03T15:13:42.596Z,2.67
2022-10-03T15:16:17.827Z,2.40
2022-10-03T15:18:48.501Z,2.80
2022-10-03T15:21:18.009Z,2.50
2022-10-03T15:23:47.651Z,2.80
2022-10-03T15:26:18.840Z,2.55
2022-10-03T15:28:49.024Z,3.20
2022-10-03T15:31:24.082Z,3.10
2022-10-03T15:33:54.083Z,2.88
2022-10-03T15:36:25.622Z,3.13
2022-10-03T15:38:56.563Z,3.10
2022-10-03T15:41:30.242Z,2.80
2022-10-03T15:44:02.533Z,2.90
2022-10-03T15:46:35.902Z,3.00
2022-10-03T15:49:08.291Z,3.40
2022-10-03T15:51:38.572Z,3.13
2022-10-03T15:54:09.239Z,3.30
2022-10-03T15:56:41.329Z,3.20
2022-10-03T15:59:12.029Z,3.30
2022-10-03T16:01:46.860Z,3.10
2022-10-03T16:04:18.783Z,3.47
2022-10-03T16:06:50.190Z,3.38
2022-10-03T16:09:21.972Z,3.63
2022-10-03T16:11:55.945Z,3.75
2022-10-03T16:14:25.964Z,4.80
2022-10-03T16:16:58.788Z,4.70
2022-10-03T16:19:30.665Z,4.95
2022-10-03T16:22:08.965Z,5.13
2022-10-03T16:24:39.575Z,5.55
2022-10-03T16:27:13.328Z,5.68
2022-10-03T16:29:44.324Z,4.82
2022-10-03T16:32:18.395Z,4.40
2022-10-03T16:34:48.041Z,4.57
2022-10-03T16:37:20.348Z,4.95
2022-10-03T16:39:55.799Z,4.80
2022-10-03T16:42:29.055Z,4.75
2022-10-03T16:45:01.569Z,5.57
2022-10-03T16:47:36.038Z,5.70
2022-10-03T16:50:18.413Z,5.40
2022-10-03T16:52:49.894Z,5.95
2022-10-03T16:55:20.343Z,5.47
2022-10-03T16:57:51.809Z,5.40
2022-10-03T17:00:24.719Z,5.32
2022-10-03T17:02:56.959Z,5.35
2022-10-03T17:05:26.597Z,6.10
2022-10-03T17:07:57.599Z,6.95
2022-10-03T17:10:38.091Z,9.07
2022-10-03T17:13:13.695Z,9.27
2022-10-03T17:15:48.708Z,9.82
2022-10-03T17:18:26.280Z,7.05
2022-10-03T17:20:57.602Z,7.20
2022-10-03T17:23:30.953Z,8.57
2022-10-03T17:26:06.258Z,8.30
2022-10-03T17:28:44.590Z,8.50
2022-10-03T17:31:26.454Z,7.30
2022-10-03T17:34:01.205Z,6.32
2022-10-03T17:37:05.961Z,6.45
2022-10-03T17:39:57.114Z,6.68
2022-10-03T17:42:35.693Z,6.22
2022-10-03T17:45:13.260Z,7.18
2022-10-03T17:47:49.821Z,7.18
2022-10-03T17:50:22.680Z,6.68
2022-10-03T17:52:52.942Z,7.13
2022-10-03T17:55:24.304Z,6.63
2022-10-03T17:57:54.721Z,5.93
2022-10-03T18:00:25.637Z,6.82
2022-10-03T18:02:59.202Z,6.47
2022-10-03T18:05:32.542Z,6.13
2022-10-03T18:08:04.447Z,5.90
2022-10-03T18:10:35.677Z,6.45
2022-10-03T18:13:05.744Z,6.97
2022-10-03T18:15:51.062Z,7.18
2022-10-03T18:18:50.512Z,7.10
2022-10-03T18:21:28.070Z,6.80
2022-10-03T18:24:09.477Z,6.80
2022-10-03T18:26:42.804Z,7.03
2022-10-03T18:29:18.736Z,7.68
2022-10-03T18:31:50.291Z,9.07
2022-10-03T18:34:22.313Z,9.70
2022-10-03T18:36:54.776Z,17.48
2022-10-03T18:39:25.906Z,32.35
2022-10-03T18:44:25.314Z,29.65
2022-10-03T18:47:04.945Z,26.52
2022-10-03T18:49:35.623Z,15.98
2022-10-03T18:52:13.046Z,12.55
2022-10-03T18:54:49.792Z,10.20
2022-10-03T18:57:21.619Z,10.00
2022-10-03T18:59:54.499Z,9.40
2022-10-03T19:02:27.600Z,9.25
2022-10-03T19:04:58.731Z,8.98
2022-10-03T19:10:17.184Z,8.80
2022-10-03T19:12:48.374Z,8.57
2022-10-03T19:20:23.725Z,8.57
2022-10-03T19:23:02.625Z,8.63
2022-10-03T19:25:32.061Z,9.30
2022-10-03T19:28:02.263Z,8.35
2022-10-03T19:30:32.885Z,8.57
2022-10-03T19:33:03.844Z,8.30
2022-10-03T19:35:33.377Z,7.93
2022-10-03T19:38:08.481Z,8.30
2022-10-03T19:40:45.063Z,12.40
2022-10-03T19:43:30.553Z,10.15
2022-10-03T19:46:03.660Z,9.48
2022-10-03T19:48:33.212Z,9.00
2022-10-03T19:51:15.670Z,11.45
2022-10-03T19:53:52.186Z,9.85
2022-10-03T19:56:23.212Z,8.98
2022-10-03T19:59:01.456Z,8.93
2022-10-03T20:01:31.084Z,8.10
2022-10-03T20:04:01.484Z,7.80
2022-10-03T20:06:33.264Z,7.25
2022-10-03T20:09:06.565Z,7.82
2022-10-03T20:11:43.927Z,7.40
2022-10-03T20:14:16.535Z,7.03
2022-10-03T20:16:47.391Z,6.40
2022-10-03T20:19:17.697Z,6.50
2022-10-03T20:21:47.117Z,6.90
2022-10-03T20:24:24.090Z,6.32
2022-10-03T20:26:56.869Z,6.00
2022-10-03T20:29:29.633Z,6.03
2022-10-03T20:32:03.066Z,5.93
2022-10-03T20:34:32.830Z,5.72
2022-10-03T20:37:15.701Z,6.80
2022-10-03T20:39:47.786Z,7.25
2022-10-03T20:42:18.848Z,6.38
2022-10-03T20:45:01.029Z,6.50
2022-10-03T20:47:51.904Z,7.60
2022-10-03T20:50:25.301Z,6.80
2022-10-03T20:52:55.913Z,7.28
2022-10-03T20:55:28.988Z,7.30
2022-10-03T20:58:12.720Z,6.80
2022-10-03T21:00:45.394Z,7.05
2022-10-03T21:03:18.490Z,7.18
2022-10-03T21:05:50.497Z,7.55
2022-10-03T21:08:23.046Z,7.60
2022-10-03T21:10:57.700Z,7.18
2022-10-03T21:13:31.052Z,7.07
2022-10-03T21:16:00.780Z,7.22
2022-10-03T21:18:31.045Z,7.07
2022-10-03T21:21:08.058Z,6.93
2022-10-03T21:23:39.676Z,6.72
2022-10-03T21:26:12.009Z,6.60
2022-10-03T21:28:41.518Z,6.43
2022-10-03T21:31:24.302Z,6.45
2022-10-03T21:34:00.037Z,6.07
2022-10-03T21:36:34.337Z,5.88
2022-10-03T21:39:10.405Z,6.18
2022-10-03T21:41:44.912Z,6.20
2022-10-03T21:44:28.060Z,6.63
2022-10-03T21:47:00.178Z,6.28
2022-10-03T21:49:47.749Z,6.13
2022-10-03T21:52:27.216Z,6.38
2022-10-03T21:55:05.053Z,6.28
2022-10-03T21:57:42.659Z,5.68
2022-10-03T22:00:14.729Z,5.85
2022-10-03T22:02:58.238Z,5.93
2022-10-03T22:05:34.010Z,6.20
2022-10-03T22:08:13.897Z,5.80
2022-10-03T22:10:43.300Z,5.45
2022-10-03T22:13:15.837Z,5.35
2022-10-03T22:15:46.817Z,5.57
2022-10-03T22:18:17.551Z,5.53
2022-10-03T22:20:52.992Z,5.75
2022-10-03T22:23:28.275Z,6.00
2022-10-03T22:26:09.390Z,6.22
2022-10-03T22:28:46.199Z,5.65
2022-10-03T22:31:20.003Z,6.10
2022-10-03T22:33:57.009Z,5.82
2022-10-03T22:36:26.466Z,5.70
2022-10-03T22:38:55.877Z,6.50
2022-10-03T22:41:28.131Z,6.00
2022-10-03T22:44:01.103Z,6.18
2022-10-03T22:46:32.063Z,5.75
2022-10-03T22:49:03.661Z,6.47
2022-10-03T22:51:33.112Z,6.07
2022-10-03T22:54:05.908Z,6.07
2022-10-03T22:56:46.391Z,6.22
2022-10-03T22:59:22.514Z,5.97
2022-10-03T23:01:53.665Z,6.05
2022-10-03T23:07:16.178Z,5.63
2022-10-03T23:09:50.388Z,6.30
2022-10-03T23:12:19.863Z,6.13
2022-10-03T23:14:52.958Z,5.80
2022-10-03T23:17:36.384Z,5.72
2022-10-03T23:20:09.945Z,5.93
2022-10-03T23:22:39.400Z,5.68
2022-10-03T23:25:09.816Z,5.78
2022-10-03T23:27:50.013Z,6.35
2022-10-03T23:30:55.260Z,6.10
2022-10-03T23:33:54.534Z,6.03
2022-10-03T23:36:26.271Z,7.38
2022-10-03T23:39:02.292Z,9.27
2022-10-03T23:41:46.873Z,7.78
2022-10-03T23:44:38.332Z,7.47
2022-10-03T23:47:08.105Z,8.02
2022-10-03T23:49:40.298Z,7.53
2022-10-03T23:52:09.716Z,7.25
2022-10-03T23:54:39.424Z,6.13
2022-10-03T23:57:09.965Z,6.18
2022-10-03T23:59:39.576Z,5.47
